Terminal Aerodrome Forecast
Issued by NWS

Home | Current Version | Previous Version | Graphics & Text | Print | Product List | Glossary On
Versions: 1 2 3 4 5 6 7 8 9 10 11 12 13 14 15 16 17 18 19 20 21 22 23
000
FTUS43 KBIS 060929 AAA
TAFMOT
TAF AMD
KMOT 060929Z 0609/0706 31030G43KT 1/2SM SN BLSN FZFG VV005
     FM061200 30030G43KT 1SM -SN BLSN OVC015
     FM061800 29029G40KT 2SM BLSN OVC015
     FM062100 29028G38KT 3SM BLSN OVC020
     FM070100 29026KT 3SM BLSN OVC015=

USA.gov is the U.S. government's official web portal to all federal, state and local government web resources and services.